Home > Products > Valid Products > TAF

000
FTUS43 KIND 311500 AAB
TAFIND
TAF AMD
KIND 311533Z 3116/0118 32015G28KT 5SM -RA BR BKN015 OVC025
     FM311600 32016G30KT P6SM VCSH SCT025 OVC035
      TEMPO 3116/3119 BKN020
     FM312000 33020G32KT P6SM BKN025 OVC040
      TEMPO 3121/0101 4SM -SHRASN
     FM010500 34016G24KT P6SM SCT025 BKN040=



000
FTUS43 KIND 311400 AAA
TAFIND
TAF AMD
KIND 311415Z 3114/0118 32015G30KT 5SM -RA BR SCT015 OVC025
     FM311530 32016G30KT P6SM VCSH SCT025 OVC035
      TEMPO 3116/3119 BKN020
     FM312000 33020G32KT P6SM BKN025 OVC040
      TEMPO 3121/0101 4SM -SHRASN
     FM010500 34016G24KT P6SM SCT025 BKN040=



000
FTUS43 KIND 311400 AAA
TAFLAF
TAF AMD
KLAF 311409Z 3114/0112 33016G25KT P6SM SCT025 OVC035
      TEMPO 3116/3118 5SM -RA BR BKN025
     FM312000 34020G32KT P6SM BKN025 OVC040
      TEMPO 3120/3124 4SM -SHRASN
     FM010500 35015G23KT P6SM SCT025 BKN040=



000
FTUS43 KIND 311100
TAFIND
TAF
KIND 311122Z 3112/0118 29007KT P6SM SCT050 OVC080
     FM311400 32016G25KT P6SM BKN025 OVC040
      TEMPO 3115/3119 5SM -RA BR
     FM312000 33020G32KT P6SM BKN025 OVC040
      TEMPO 3121/0101 4SM -SHRASN
     FM010500 34016G24KT P6SM SCT025 BKN040=



000
FTUS43 KIND 311100
TAFLAF
TAF
KLAF 311122Z 3112/0112 33016G25KT P6SM BKN025 OVC040
      TEMPO 3113/3117 5SM -RA BR
     FM312000 34020G32KT P6SM BKN025 OVC040
      TEMPO 3120/3124 4SM -SHRASN
     FM010500 35015G23KT P6SM SCT025 BKN040
      AMD LTD TO CLD VIS AND WIND TIL 311300=



000
FTUS43 KIND 310800 AAA
TAFLAF
TAF AMD
KLAF 310812Z 3108/0106 30005KT P6SM BKN050 OVC080
     FM311200 32011G25KT P6SM BKN025 OVC040
      TEMPO 3112/3116 -RA
     FM311800 35016G30KT P6SM VCSH BKN020
     FM010100 34014G22KT P6SM -RASN BKN030
      AMD LTD TO CLD VIS AND WIND TIL 311300=



000
FTUS43 KIND 310800 AAA
TAFIND
TAF AMD
KIND 310805Z 3108/0112 28005KT P6SM SCT050 BKN080
     FM311400 31010G20KT P6SM BKN025 OVC040
      TEMPO 3114/3118 -RA
     FM311900 30017G30KT P6SM VCSH BKN020
     FM010100 33016G22KT P6SM -RASN BKN030
     FM010600 32015KT P6SM FEW040=



000
FTUS43 KIND 310500
TAFIND
TAF
KIND 310521Z 3106/0112 27004KT P6SM -RA OVC050
     FM311300 31010G20KT P6SM VCSH SCT015 OVC030
     FM311900 30017G30KT P6SM VCSH BKN020
     FM010100 33016G22KT P6SM -RASN BKN030
     FM010600 32015KT P6SM FEW040=



000
FTUS43 KIND 310500
TAFLAF
TAF
KLAF 310521Z 3106/0106 31003KT P6SM VCSH BKN060 OVC110
     FM311100 32011G25KT P6SM VCSH SCT015 BKN030
     FM311800 35016G30KT P6SM VCSH BKN020
     FM010100 34014G22KT P6SM -RASN BKN030
      AMD LTD TO CLD VIS AND WIND TIL 311300=



000
FTUS43 KIND 310200 AAA
TAFIND
TAF AMD
KIND 310208Z 3102/0106 20003KT P6SM OVC070
     FM310300 29005KT P6SM VCSH OVC050
     FM311300 31010G20KT P6SM VCSH SCT015 OVC030
     FM311900 30017G30KT P6SM VCSH BKN020
     FM010100 33016G22KT P6SM -RASN BKN030=



000
FTUS43 KIND 302300
TAFIND
TAF
KIND 302324Z 3100/0106 30006KT P6SM BKN130 OVC200
     FM310300 29005KT P6SM VCSH OVC035
     FM311300 31010G20KT P6SM VCSH SCT015 OVC030
     FM311900 30017G30KT P6SM VCSH BKN020
     FM010100 33016G22KT P6SM -RASN BKN030=



000
FTUS43 KIND 302300
TAFLAF
TAF
KLAF 302324Z 3100/3124 32004KT P6SM VCSH OVC080
     FM311100 32011G25KT P6SM VCSH SCT015 BKN030
     FM311800 35016G30KT P6SM VCSH BKN020
      AMD LTD TO CLD VIS AND WIND 3101/3113=



000
FTUS43 KIND 302000 AAA
TAFIND
TAF AMD
KIND 302029Z 3020/3124 17005KT P6SM SCT130 BKN200
     FM310000 30006KT P6SM VCSH OVC060
     FM311300 31010G20KT P6SM VCSH SCT015 OVC030
     FM311900 30017G30KT P6SM VCSH BKN020=



000
FTUS43 KIND 301700
TAFLAF
TAF
KLAF 301721Z 3018/3118 19005KT P6SM BKN090
     FM310000 31005KT P6SM OVC060
     FM311100 32011G25KT P6SM VCSH SCT015 BKN030=



000
FTUS43 KIND 301700
TAFIND
TAF
KIND 301721Z 3018/3124 17005KT P6SM BKN090
     FM310000 30006KT P6SM VCSH OVC060
     FM311300 31010G20KT P6SM VCSH SCT015 OVC030
     FM311900 30017G30KT P6SM VCSH BKN020=



000
FTUS43 KIND 301400 AAA
TAFIND
TAF AMD
KIND 301425Z 3014/3118 22003KT P6SM SCT100
     FM301700 VRB04KT P6SM BKN100
     FM310300 30006KT P6SM VCSH OVC060=



000
FTUS43 KIND 301200 AAA
TAFLAF
TAF AMD
KLAF 301259Z 3013/3112 00000KT 6SM BR SKC
     FM301400 VRB05KT P6SM BKN100
     FM310000 31005KT P6SM VCSH OVC060=



000
FTUS43 KIND 301100
TAFLAF
TAF
KLAF 301120Z 3012/3112 00000KT 3SM BR BCFG SKC
     FM301400 VRB05KT P6SM BKN100
     FM310000 31005KT P6SM VCSH OVC060
      AMD LTD TO CLD VIS AND WIND TIL 301300=



000
FTUS43 KIND 301100
TAFIND
TAF
KIND 301120Z 3012/3118 26003KT P6SM SKC
     FM301600 VRB04KT P6SM BKN100
     FM310300 30006KT P6SM VCSH OVC060=



000
FTUS43 KIND 301000 AAA
TAFLAF
TAF AMD
KLAF 301012Z 3010/3106 28002KT P6SM SKC
      TEMPO 3010/3012 5SM BR
     FM301400 18005KT P6SM BKN100
     FM310000 30003KT P6SM VCSH OVC060
      AMD LTD TO CLD VIS AND WIND TIL 301300=



000
FTUS43 KIND 300800 AAA
TAFIND
TAF AMD
KIND 300825Z 3008/3112 28002KT P6SM FEW040
     FM301600 20006KT P6SM BKN150
     FM310300 28006KT P6SM VCSH OVC060=



000
FTUS43 KIND 300500
TAFIND
TAF
KIND 300520Z 3006/3112 32004KT P6SM OVC045
     FM300800 28002KT P6SM FEW040
     FM301600 20006KT P6SM BKN150
     FM310300 28006KT P6SM VCSH OVC060=



000
FTUS43 KIND 300500
TAFLAF
TAF
KLAF 300520Z 3006/3106 VRB01KT P6SM OVC045
     FM300700 28002KT P6SM SKC
     FM301400 18005KT P6SM BKN100
     FM310000 30003KT P6SM VCSH OVC060
      AMD LTD TO CLD VIS AND WIND TIL 301300=



000
FTUS43 KIND 300200 AAA
TAFIND
TAF AMD
KIND 300216Z 3002/3106 30008KT P6SM OVC040
     FM300400 VRB03KT P6SM SKC
     FM301600 20006KT P6SM BKN150
     FM310500 28006KT P6SM VCSH OVC060=



000
FTUS43 KIND 292300
TAFLAF
TAF
KLAF 292320Z 3000/3024 30006KT P6SM OVC040
     FM300200 VRB01KT P6SM SKC
     FM301400 18005KT P6SM BKN100
      AMD LTD TO CLD VIS AND WIND 3001/3013=



000
FTUS43 KIND 292300
TAFIND
TAF
KIND 292320Z 3000/3106 30008KT P6SM OVC040
     FM300400 VRB03KT P6SM SKC
     FM301600 20006KT P6SM BKN150
     FM310500 28006KT P6SM VCSH OVC060=



000
FTUS43 KIND 292000 AAA
TAFIND
TAF AMD
KIND 292017Z 2920/3024 30016KT P6SM BKN040
     FM300400 VRB03KT P6SM SKC
     FM301600 20006KT P6SM BKN150=



000
FTUS43 KIND 292000 AAA
TAFIND
TAF AMD
KIND 292017Z 2920/3024 30016KT P6SM BKN040
     FM300400 VRB03KT P6SM SKC
     FM301600 20006KT P6SM BKN150=



000
FTUS43 KIND 291700
TAFIND
TAF
KIND 291729Z 2918/3024 30010KT P6SM BKN040
     FM300400 VRB03KT P6SM SKC
     FM301600 20006KT P6SM BKN150=



000
FTUS43 KIND 291700
TAFLAF
TAF
KLAF 291729Z 2918/3018 29010KT P6SM BKN040
     FM300200 VRB01KT P6SM SKC
     FM301400 18005KT P6SM BKN100=



000
FTUS43 KIND 291400 AAA
TAFLAF
TAF AMD
KLAF 291408Z 2914/3012 28010KT P6SM BKN040
     FM291700 30012G18KT P6SM BKN040
     FM300000 34003KT P6SM SKC=



000
FTUS43 KIND 291400 AAA
TAFIND
TAF AMD
KIND 291406Z 2914/3018 28010KT P6SM FEW030
     FM291600 29013G19KT P6SM BKN040
     FM300100 32005KT P6SM SKC=



000
FTUS43 KIND 291100
TAFIND
TAF
KIND 291125Z 2912/3018 25007KT P6SM SKC
     FM291500 28010KT P6SM SCT040
     FM291800 29013G19KT P6SM BKN040
     FM300100 32005KT P6SM SKC=



000
FTUS43 KIND 291100
TAFLAF
TAF
KLAF 291125Z 2912/3012 25005KT P6SM SKC
     FM291400 29008KT P6SM SCT040
     FM291700 30012G18KT P6SM BKN040
     FM300000 34003KT P6SM SKC
      AMD LTD TO CLD VIS AND WIND TIL 291300=



000
FTUS43 KIND 290800 AAA
TAFIND
TAF AMD
KIND 290806Z 2908/3012 27008KT P6SM FEW150 SCT250
     FM291500 28010KT P6SM SCT030
     FM291900 29013G19KT P6SM BKN040
     FM300300 32006KT P6SM SKC=



000
FTUS43 KIND 290500
TAFIND
TAF
KIND 290532Z 2906/3012 27008KT P6SM FEW150 SCT250
     FM291500 28010KT P6SM SCT030
     FM291900 29013G19KT P6SM BKN040
     FM300300 32006KT P6SM SKC=



000
FTUS43 KIND 290500
TAFLAF
TAF
KLAF 290532Z 2906/3006 28006KT P6SM SCT250
     FM291500 29010KT P6SM SCT030
     FM291800 30012G18KT P6SM BKN040
     FM300200 34004KT P6SM SKC
      AMD LTD TO CLD VIS AND WIND TIL 291300=



000
FTUS43 KIND 290200 AAA
TAFIND
TAF AMD
KIND 290210Z 2902/3006 25008KT P6SM FEW150 BKN250
     FM290800 27007KT P6SM SCT250
     FM291400 28010KT P6SM SCT035
     FM291700 29013KT P6SM BKN045=



000
FTUS43 KIND 282300
TAFIND
TAF
KIND 282320Z 2900/3006 26010KT P6SM FEW150 BKN250
     FM290700 27007KT P6SM SCT250
     FM291400 28010KT P6SM SCT035
     FM291700 29013KT P6SM BKN045=



000
FTUS43 KIND 282300
TAFLAF
TAF
KLAF 282320Z 2900/2924 28009KT P6SM SCT250
     FM291400 29010KT P6SM SCT030
     FM291700 30012KT P6SM BKN040
      AMD LTD TO CLD VIS AND WIND 2901/2913=



000
FTUS43 KIND 282000 AAA
TAFLAF
TAF AMD
KLAF 282025Z 2820/2918 27012G18KT P6SM SCT250
     FM282200 28007KT P6SM SCT250
     FM291530 29010KT P6SM SCT045 SCT250=



000
FTUS43 KIND 282000 AAA
TAFIND
TAF AMD
KIND 282023Z 2820/2924 27010KT P6SM SCT250
     FM291530 28010KT P6SM SCT045=



000
FTUS43 KIND 281700
TAFLAF
TAF
KLAF 281725Z 2818/2918 27008KT P6SM SCT080 SCT250
     FM281900 28007KT P6SM SCT250
     FM291530 29010KT P6SM SCT045 SCT250=



000
FTUS43 KIND 281700
TAFIND
TAF
KIND 281725Z 2818/2924 28010KT P6SM SCT027 SCT100
     FM282000 27008KT P6SM SCT250
     FM291530 28010KT P6SM SCT045=



    US Dept of Commerce
    National Oceanic and Atmospheric Administration
    National Weather Service
    1325 East West Highway
    Silver Spring, MD 20910
    Page Author: NWS Internet Services Team
Disclaimer
Information Quality
Credits
Glossary
Privacy Policy
Freedom of Information Act (FOIA)
About Us
Career Opportunities